Time;durP1;ratioP1;P1;durP2;ratioP2;P2;SDS_P1;SDS_P2;PMS_P1;PMS_P2;Temp;Humidity;BMP_temperature;BMP_pressure;BME280_temperature;BME280_humidity;BME280_pressure;Samples;Min_cycle;Max_cycle;Signal;HPM_P1;HPM_P2
2021/10/13 05:57:43;;;;;;;23.15;9.75;;;10.10;99.90;;;;;;6208258;23;20757;-82
2021/10/13 06:00:10;;;;;;;18.20;9.98;;;10.10;99.90;;;;;;6210903;23;20028;-82
2021/10/13 06:02:38;;;;;;;26.27;9.60;;;10.10;99.90;;;;;;6212967;23;20017;-81
2021/10/13 06:05:05;;;;;;;26.40;10.40;;;10.10;99.90;;;;;;6185750;23;20044;-81
2021/10/13 06:07:32;;;;;;;22.90;9.45;;;10.10;99.90;;;;;;6211785;23;20016;-81
2021/10/13 06:09:59;;;;;;;24.40;10.00;;;10.10;99.90;;;;;;6210914;23;20398;-81
2021/10/13 06:12:26;;;;;;;13.32;7.80;;;10.00;99.90;;;;;;6211710;23;20020;-81
2021/10/13 06:14:53;;;;;;;25.73;10.23;;;10.00;99.90;;;;;;6212119;23;20021;-81
2021/10/13 06:17:21;;;;;;;23.88;10.40;;;10.00;99.90;;;;;;6211807;23;20340;-81
2021/10/13 06:19:48;;;;;;;14.37;7.63;;;10.00;99.90;;;;;;6212188;23;20021;-81
2021/10/13 06:22:14;;;;;;;25.35;10.48;;;10.00;99.90;;;;;;6211970;23;20083;-82
2021/10/13 06:24:41;;;;;;;21.98;10.73;;;10.00;99.90;;;;;;6211324;23;20012;-82
2021/10/13 06:27:08;;;;;;;23.90;11.48;;;10.00;99.90;;;;;;6212054;23;20016;-83
2021/10/13 06:29:35;;;;;;;19.17;9.65;;;10.10;99.90;;;;;;6211506;23;20063;-82
2021/10/13 06:32:02;;;;;;;23.25;11.23;;;10.10;99.90;;;;;;6211887;23;20017;-83
2021/10/13 06:34:29;;;;;;;22.85;10.88;;;10.10;99.90;;;;;;6211757;23;20946;-83
2021/10/13 06:36:56;;;;;;;24.23;10.70;;;10.00;99.90;;;;;;6211712;23;20043;-82
2021/10/13 06:39:23;;;;;;;16.25;8.80;;;10.00;99.90;;;;;;6211604;23;20475;-83
2021/10/13 06:41:50;;;;;;;23.55;11.18;;;10.00;99.90;;;;;;6212255;23;20028;-82
2021/10/13 06:44:17;;;;;;;29.55;12.00;;;10.00;99.90;;;;;;6211426;23;20027;-82
2021/10/13 06:46:44;;;;;;;24.60;11.88;;;10.00;99.90;;;;;;6211971;23;20017;-82
2021/10/13 06:49:11;;;;;;;33.78;11.57;;;10.00;99.90;;;;;;6210481;23;20020;-81
2021/10/13 06:51:38;;;;;;;25.95;11.38;;;10.00;99.90;;;;;;6211339;23;20020;-82
2021/10/13 06:54:05;;;;;;;20.15;10.88;;;10.00;99.90;;;;;;6211155;23;20021;-82
2021/10/13 06:56:31;;;;;;;27.45;11.65;;;10.00;99.90;;;;;;6209330;23;20351;-83
2021/10/13 06:58:58;;;;;;;26.02;11.07;;;10.00;99.90;;;;;;6212166;23;20021;-85
2021/10/13 07:01:25;;;;;;;27.15;10.80;;;10.10;99.90;;;;;;6210259;23;20548;-85
2021/10/13 07:03:52;;;;;;;34.10;12.07;;;10.00;99.90;;;;;;6212689;23;20017;-85
2021/10/13 07:06:19;;;;;;;34.35;12.32;;;10.10;99.90;;;;;;6211691;23;20047;-84
2021/10/13 07:08:46;;;;;;;21.45;11.82;;;10.10;99.90;;;;;;6212439;23;20075;-84
2021/10/13 07:11:13;;;;;;;28.50;11.45;;;10.10;99.90;;;;;;6211952;23;20048;-87
2021/10/13 07:13:40;;;;;;;19.00;9.25;;;10.10;99.90;;;;;;6211639;23;20079;-84
2021/10/13 07:16:07;;;;;;;22.65;11.32;;;10.20;99.90;;;;;;6212354;23;20012;-84
2021/10/13 07:18:34;;;;;;;14.20;8.55;;;10.20;99.90;;;;;;6212965;23;20398;-84
2021/10/13 07:21:01;;;;;;;24.08;11.63;;;10.20;99.90;;;;;;6210678;23;20130;-85
2021/10/13 07:23:28;;;;;;;15.80;9.30;;;10.30;99.90;;;;;;6211016;23;20028;-84
2021/10/13 07:25:55;;;;;;;24.08;11.52;;;10.30;99.90;;;;;;6213327;23;20070;-84
2021/10/13 07:28:22;;;;;;;24.40;10.77;;;10.30;99.90;;;;;;6212106;23;20020;-85
2021/10/13 07:30:49;;;;;;;17.27;8.68;;;10.40;99.90;;;;;;6212601;23;20074;-85
2021/10/13 07:33:16;;;;;;;23.63;11.65;;;10.40;99.90;;;;;;6211676;23;20058;-86
2021/10/13 07:35:43;;;;;;;13.25;8.50;;;10.50;99.90;;;;;;6212508;23;20344;-86
2021/10/13 07:38:12;;;;;;;22.92;11.20;;;10.60;99.90;;;;;;6185096;23;20071;-88
2021/10/13 07:40:39;;;;;;;14.07;8.30;;;10.60;99.90;;;;;;6212497;23;20071;-86
2021/10/13 07:43:08;;;;;;;18.38;9.43;;;10.70;99.90;;;;;;6210931;23;20021;-84
2021/10/13 07:45:36;;;;;;;19.05;8.73;;;10.80;99.90;;;;;;6211483;23;20398;-85
2021/10/13 07:48:04;;;;;;;18.02;8.40;;;10.90;99.90;;;;;;6211439;23;20070;-84
2021/10/13 07:50:31;;;;;;;11.68;8.13;;;11.00;99.90;;;;;;6212557;23;20025;-86
2021/10/13 07:52:57;;;;;;;14.15;9.88;;;11.10;99.90;;;;;;6212867;23;20020;-86
2021/10/13 07:55:25;;;;;;;13.75;9.68;;;11.20;99.90;;;;;;6211900;23;20020;-85
2021/10/13 07:57:52;;;;;;;16.05;9.25;;;11.30;99.90;;;;;;6212691;23;20009;-85
2021/10/13 08:00:20;;;;;;;15.68;8.70;;;11.40;99.90;;;;;;6211352;23;20024;-86
2021/10/13 08:02:48;;;;;;;17.33;8.40;;;11.50;99.90;;;;;;6213015;23;20021;-86
2021/10/13 08:05:16;;;;;;;16.93;8.70;;;11.60;99.90;;;;;;6212043;23;20025;-87
2021/10/13 08:07:44;;;;;;;12.82;7.95;;;11.80;99.90;;;;;;6186276;23;20016;-84
2021/10/13 08:10:12;;;;;;;14.95;7.95;;;11.90;99.90;;;;;;6185725;23;20027;-84
2021/10/13 08:12:39;;;;;;;15.33;8.30;;;12.00;99.90;;;;;;6186187;23;20066;-84
2021/10/13 08:15:07;;;;;;;12.90;6.88;;;12.10;99.90;;;;;;6212008;23;20342;-85
2021/10/13 08:17:34;;;;;;;13.32;7.97;;;12.20;99.90;;;;;;6212919;23;20021;-85
2021/10/13 08:20:07;;;;;;;14.70;7.40;;;12.30;99.90;;;;;;6210644;23;20414;-86
2021/10/13 08:22:34;;;;;;;10.43;6.90;;;12.50;99.90;;;;;;6209699;23;20348;-86
2021/10/13 08:25:01;;;;;;;9.13;7.05;;;12.60;99.90;;;;;;6181478;23;20052;-85
2021/10/13 08:27:28;;;;;;;13.15;6.57;;;12.70;99.90;;;;;;6182206;23;20032;-85
2021/10/13 08:29:55;;;;;;;10.52;7.47;;;12.80;99.90;;;;;;6208758;23;20482;-87
2021/10/13 08:32:22;;;;;;;12.38;7.25;;;12.90;99.90;;;;;;6206415;23;20029;-85
2021/10/13 08:34:49;;;;;;;19.65;8.57;;;13.00;99.90;;;;;;6209741;23;20071;-90
2021/10/13 08:37:16;;;;;;;15.32;8.77;;;13.10;99.90;;;;;;6209102;23;20481;-87
2021/10/13 08:39:43;;;;;;;16.40;8.27;;;13.30;99.90;;;;;;6211470;23;20028;-88
2021/10/13 08:42:11;;;;;;;17.33;7.72;;;13.40;99.90;;;;;;6186621;23;20016;-86
2021/10/13 08:44:40;;;;;;;17.83;7.15;;;13.50;99.90;;;;;;6211703;23;20017;-84
2021/10/13 08:47:10;;;;;;;9.23;6.10;;;13.60;99.90;;;;;;6213713;23;20025;-89
2021/10/13 08:49:41;;;;;;;12.02;6.93;;;13.70;99.90;;;;;;6210956;23;20013;-85
2021/10/13 08:52:12;;;;;;;10.18;6.85;;;13.80;99.90;;;;;;6211344;23;20440;-84
2021/10/13 08:54:41;;;;;;;10.65;6.28;;;13.90;99.90;;;;;;6213845;23;20021;-85
2021/10/13 08:57:22;;;;;;;13.75;6.35;;;14.00;99.90;;;;;;6187313;23;20063;-85
2021/10/13 08:59:51;;;;;;;11.40;5.90;;;14.20;99.90;;;;;;6214236;23;20013;-84
2021/10/13 09:02:42;;;;;;;8.25;4.70;;;14.20;99.90;;;;;;6213043;23;20024;-83
2021/10/13 09:05:15;;;;;;;11.50;5.32;;;14.30;99.90;;;;;;6187116;23;20020;-84
2021/10/13 09:07:53;;;;;;;11.82;5.15;;;14.40;99.90;;;;;;6214097;23;20021;-84
2021/10/13 09:10:31;;;;;;;7.15;4.50;;;14.50;99.90;;;;;;6213368;23;20096;-84
2021/10/13 09:13:00;;;;;;;8.65;4.53;;;14.60;99.90;;;;;;6212062;23;20086;-85
2021/10/13 09:15:29;;;;;;;8.60;4.55;;;14.70;99.90;;;;;;6212860;23;20020;-84
2021/10/13 09:17:56;;;;;;;;;;;14.80;99.90;;;;;;6214163;23;20058;-85
2021/10/13 09:20:26;;;;;;;6.50;4.15;;;14.90;99.90;;;;;;6213135;23;19962;-86
2021/10/13 09:22:59;;;;;;;9.25;4.22;;;15.00;99.90;;;;;;6213401;23;20394;-86
2021/10/13 09:25:27;;;;;;;7.82;4.60;;;15.00;99.90;;;;;;6212752;23;20076;-84
2021/10/13 09:27:54;;;;;;;5.78;3.78;;;15.10;99.90;;;;;;6212766;23;20086;-83
2021/10/13 09:30:31;;;;;;;8.82;3.88;;;15.10;99.90;;;;;;6213105;23;20099;-84
2021/10/13 09:33:16;;;;;;;9.05;4.40;;;15.30;99.90;;;;;;6213263;23;20099;-84
2021/10/13 09:35:51;;;;;;;7.32;3.70;;;15.30;99.90;;;;;;6214002;23;20063;-83
2021/10/13 09:38:23;;;;;;;11.45;4.32;;;15.40;99.90;;;;;;6185989;23;20104;-84
2021/10/13 09:40:58;;;;;;;11.50;4.00;;;15.50;99.90;;;;;;6213590;23;20015;-85
2021/10/13 09:43:36;;;;;;;10.15;4.25;;;15.60;99.90;;;;;;6211639;23;20025;-84
2021/10/13 09:46:12;;;;;;;4.97;3.42;;;15.70;99.90;;;;;;6211132;23;20013;-84
2021/10/13 09:48:41;;;;;;;9.27;3.75;;;15.70;99.90;;;;;;6212377;23;20013;-84
2021/10/13 09:51:21;;;;;;;8.55;3.85;;;15.80;99.90;;;;;;6212019;23;20451;-84
2021/10/13 09:53:50;;;;;;;9.85;3.70;;;15.90;99.90;;;;;;6210336;23;20013;-82
2021/10/13 09:56:31;;;;;;;7.35;3.58;;;16.00;99.90;;;;;;6204170;23;20079;-82
2021/10/13 09:59:18;;;;;;;6.32;3.38;;;16.10;99.90;;;;;;6205329;23;20021;-83
2021/10/13 10:01:57;;;;;;;9.40;4.10;;;16.20;99.90;;;;;;6207121;23;20074;-82
2021/10/13 10:04:26;;;;;;;9.63;3.58;;;16.20;99.90;;;;;;6206812;23;20302;-83
2021/10/13 10:06:57;;;;;;;6.65;3.28;;;16.30;99.90;;;;;;6207687;23;20075;-81
2021/10/13 10:09:26;;;;;;;7.63;3.30;;;16.40;99.90;;;;;;6181182;23;20021;-83
2021/10/13 10:12:08;;;;;;;6.70;2.75;;;16.50;99.90;;;;;;6207419;23;20016;-83
2021/10/13 10:14:43;;;;;;;6.38;2.75;;;16.60;99.90;;;;;;6205436;23;20024;-81
2021/10/13 10:17:12;;;;;;;6.70;2.97;;;16.60;99.90;;;;;;6205479;23;20016;-83
2021/10/13 10:19:45;;;;;;;6.68;2.90;;;16.60;99.90;;;;;;6205940;23;20095;-84
2021/10/13 10:22:21;;;;;;;8.00;2.95;;;16.70;99.90;;;;;;6207000;23;20596;-83
2021/10/13 10:24:53;;;;;;;5.80;2.80;;;16.80;99.90;;;;;;6182289;23;20066;-82
2021/10/13 10:27:23;;;;;;;10.75;3.58;;;16.90;99.90;;;;;;6206747;23;20024;-84
2021/10/13 10:30:08;;;;;;;5.13;2.45;;;16.90;99.90;;;;;;6206165;23;20768;-82
2021/10/13 10:32:37;;;;;;;8.77;2.92;;;17.00;99.90;;;;;;6207526;23;20021;-83
2021/10/13 10:35:04;;;;;;;9.88;2.78;;;17.00;99.90;;;;;;6207346;23;20016;-83
2021/10/13 10:37:48;;;;;;;7.85;2.60;;;17.10;99.90;;;;;;6206871;23;20066;-82
2021/10/13 10:40:15;;;;;;;3.88;2.38;;;17.10;99.90;;;;;;6206939;23;20083;-82
2021/10/13 10:43:04;;;;;;;4.90;2.80;;;17.20;99.90;;;;;;6207856;23;20083;-83
2021/10/13 10:45:35;;;;;;;4.60;2.08;;;17.20;99.90;;;;;;6207235;23;20083;-83
2021/10/13 10:48:02;;;;;;;4.40;2.38;;;17.30;99.90;;;;;;6207801;23;20099;-84
2021/10/13 10:50:42;;;;;;;3.97;1.70;;;17.40;99.90;;;;;;6207475;23;20020;-83
2021/10/13 10:53:31;;;;;;;6.35;2.00;;;17.40;99.90;;;;;;6206486;23;20021;-83
2021/10/13 10:56:17;;;;;;;4.28;1.88;;;17.50;99.90;;;;;;6206831;23;20063;-82
2021/10/13 10:58:59;;;;;;;3.10;1.60;;;17.50;99.90;;;;;;6207093;23;20013;-82
2021/10/13 11:01:26;;;;;;;5.18;1.80;;;17.60;99.90;;;;;;6203755;23;20021;-83
2021/10/13 11:03:54;;;;;;;8.38;2.20;;;17.60;99.90;;;;;;6206569;23;20028;-82
2021/10/13 11:06:22;;;;;;;4.85;2.20;;;17.60;99.90;;;;;;6206235;23;20029;-82
2021/10/13 11:08:51;;;;;;;4.93;1.60;;;17.60;99.90;;;;;;6206511;23;20020;-83
2021/10/13 11:11:26;;;;;;;3.08;1.63;;;17.70;99.90;;;;;;6206327;23;20347;-83
2021/10/13 11:14:02;;;;;;;3.00;1.33;;;17.70;99.90;;;;;;6206361;23;20446;-82
2021/10/13 11:16:35;;;;;;;2.38;1.30;;;17.70;99.90;;;;;;6205540;23;20075;-81
2021/10/13 11:19:08;;;;;;;3.72;1.30;;;17.80;99.90;;;;;;6206684;23;20016;-82
2021/10/13 11:21:36;;;;;;;4.72;1.52;;;17.80;99.90;;;;;;6205810;23;20017;-83
2021/10/13 11:24:04;;;;;;;3.30;1.58;;;17.90;99.90;;;;;;6206801;23;20021;-83
2021/10/13 11:26:32;;;;;;;4.78;1.50;;;17.90;99.90;;;;;;6179085;23;20106;-83
2021/10/13 11:28:59;;;;;;;3.10;1.45;;;18.00;99.90;;;;;;6206153;23;20448;-82
2021/10/13 11:31:27;;;;;;;6.85;1.77;;;18.00;99.90;;;;;;6205235;23;20034;-82
2021/10/13 11:34:05;;;;;;;4.93;1.38;;;18.10;99.90;;;;;;6179874;23;20043;-82
2021/10/13 11:36:32;;;;;;;3.85;1.45;;;18.10;99.90;;;;;;6206128;23;20623;-83
2021/10/13 11:39:00;;;;;;;6.03;1.80;;;18.20;99.90;;;;;;6206515;23;20036;-83
2021/10/13 11:41:31;;;;;;;4.00;1.58;;;18.20;99.90;;;;;;6205738;23;20026;-83
2021/10/13 11:44:04;;;;;;;3.00;1.60;;;18.20;99.90;;;;;;6181382;23;20021;-83
2021/10/13 11:46:31;;;;;;;3.97;1.55;;;18.20;99.90;;;;;;6205533;23;20020;-83
2021/10/13 11:49:03;;;;;;;4.22;1.55;;;18.20;99.90;;;;;;6179872;23;20078;-82
2021/10/13 11:51:30;;;;;;;5.78;1.50;;;18.20;99.90;;;;;;6205934;23;20024;-83
2021/10/13 11:53:57;;;;;;;2.25;1.15;;;18.20;99.90;;;;;;6205722;23;20059;-83
2021/10/13 11:56:24;;;;;;;4.63;1.40;;;18.20;99.90;;;;;;6203261;23;20028;-83
2021/10/13 11:59:09;;;;;;;4.03;1.60;;;18.30;99.90;;;;;;6205752;23;20017;-84
2021/10/13 12:01:39;;;;;;;4.93;1.52;;;18.20;99.90;;;;;;6204930;23;20020;-82
2021/10/13 12:04:10;;;;;;;6.05;1.30;;;18.20;99.90;;;;;;6205760;23;20020;-83
2021/10/13 12:06:43;;;;;;;2.13;1.20;;;18.20;99.90;;;;;;6190093;23;20025;-82
2021/10/13 12:09:10;;;;;;;2.90;1.38;;;18.30;99.90;;;;;;6192275;23;20016;-83
2021/10/13 12:11:40;;;;;;;3.20;1.42;;;18.30;99.90;;;;;;6205156;23;20039;-82
2021/10/13 12:14:14;;;;;;;2.63;1.20;;;18.30;99.90;;;;;;6209866;23;20350;-82
2021/10/13 12:17:01;;;;;;;2.33;1.02;;;18.30;99.90;;;;;;6209899;23;20092;-81
2021/10/13 12:19:49;;;;;;;4.28;1.48;;;18.30;99.90;;;;;;6208498;23;20017;-81
2021/10/13 12:22:16;;;;;;;4.50;1.20;;;18.20;99.90;;;;;;6208568;23;20029;-81
2021/10/13 12:24:43;;;;;;;2.65;1.60;;;18.20;99.90;;;;;;6210676;23;20017;-82
2021/10/13 12:27:10;;;;;;;2.22;1.25;;;18.30;99.90;;;;;;6210139;23;20017;-82
2021/10/13 12:29:43;;;;;;;4.03;1.17;;;18.30;99.90;;;;;;6211992;23;20021;-83
2021/10/13 12:32:22;;;;;;;3.90;1.67;;;18.40;99.90;;;;;;6210085;23;20020;-81
2021/10/13 12:34:49;;;;;;;1.55;1.10;;;18.40;99.90;;;;;;6211307;23;20094;-82
2021/10/13 12:37:16;;;;;;;4.47;1.30;;;18.40;99.90;;;;;;6209524;23;20082;-83
2021/10/13 12:39:43;;;;;;;3.17;1.20;;;18.40;99.90;;;;;;6210527;23;20074;-83
2021/10/13 12:42:12;;;;;;;3.83;1.10;;;18.40;99.90;;;;;;6210807;23;20021;-83
2021/10/13 12:44:42;;;;;;;3.05;1.80;;;18.50;99.90;;;;;;6212949;23;20021;-83
2021/10/13 12:47:15;;;;;;;2.38;1.20;;;18.50;99.90;;;;;;6211063;23;20017;-83
2021/10/13 12:49:44;;;;;;;2.10;1.20;;;18.50;99.90;;;;;;6212476;23;20021;-82
2021/10/13 12:52:26;;;;;;;2.80;1.33;;;18.60;99.90;;;;;;6211625;23;20451;-83
2021/10/13 12:54:55;;;;;;;2.40;1.20;;;18.60;99.90;;;;;;6212385;23;20616;-84
2021/10/13 12:57:25;;;;;;;2.53;1.17;;;18.60;99.90;;;;;;6211224;23;20049;-83
2021/10/13 12:59:52;;;;;;;3.90;1.33;;;18.70;99.90;;;;;;6211012;23;20024;-84
2021/10/13 13:02:19;;;;;;;2.38;1.10;;;18.70;99.90;;;;;;6185728;23;20035;-83
2021/10/13 13:04:48;;;;;;;2.50;1.00;;;18.80;99.90;;;;;;6212010;23;20035;-83
2021/10/13 13:07:16;;;;;;;2.85;1.50;;;18.80;99.90;;;;;;6212237;23;20083;-82
2021/10/13 13:09:45;;;;;;;3.33;1.10;;;18.90;99.90;;;;;;6213046;23;20020;-84
2021/10/13 13:12:13;;;;;;;2.20;1.17;;;18.90;99.90;;;;;;6184930;23;20259;-83
2021/10/13 13:14:40;;;;;;;3.03;1.00;;;18.90;99.90;;;;;;6212442;23;20090;-83
2021/10/13 13:17:08;;;;;;;2.67;1.10;;;18.90;99.90;;;;;;6211511;23;20082;-83
2021/10/13 13:19:36;;;;;;;;;;;18.80;99.90;;;;;;6208426;23;20079;-82
2021/10/13 13:22:03;;;;;;;4.18;1.30;;;18.80;99.90;;;;;;6211903;23;20351;-82
2021/10/13 13:24:30;;;;;;;2.60;1.33;;;18.70;99.90;;;;;;6211484;23;20016;-82
2021/10/13 13:26:57;;;;;;;3.30;1.38;;;18.70;99.90;;;;;;6211465;23;20466;-83
2021/10/13 13:29:24;;;;;;;4.53;1.45;;;18.60;99.90;;;;;;6211191;23;20028;-82
2021/10/13 13:31:51;;;;;;;2.90;1.00;;;18.60;99.90;;;;;;6211120;23;20560;-82
2021/10/13 13:34:18;;;;;;;4.35;1.35;;;18.60;99.90;;;;;;6211613;23;20051;-82
2021/10/13 13:36:45;;;;;;;6.15;1.58;;;18.60;99.90;;;;;;6211803;23;20024;-83
2021/10/13 13:39:19;;;;;;;4.10;1.30;;;18.70;99.90;;;;;;6210829;23;20108;-82
2021/10/13 13:41:46;;;;;;;2.67;1.45;;;18.80;99.90;;;;;;6210705;23;20151;-81
2021/10/13 13:44:13;;;;;;;1.27;1.08;;;18.80;99.90;;;;;;6210322;23;20028;-82
2021/10/13 13:46:40;;;;;;;4.65;1.55;;;18.90;99.90;;;;;;6211992;23;20020;-82
2021/10/13 13:49:08;;;;;;;4.13;1.70;;;19.00;99.90;;;;;;6211005;23;20092;-83
2021/10/13 13:51:35;;;;;;;3.42;1.40;;;19.10;99.90;;;;;;6211244;23;20012;-82
2021/10/13 13:54:02;;;;;;;6.10;1.65;;;19.20;99.90;;;;;;6211639;23;20017;-84
2021/10/13 13:56:29;;;;;;;7.78;1.50;;;19.30;99.90;;;;;;6210817;23;20017;-83
2021/10/13 13:58:56;;;;;;;6.55;1.45;;;19.40;99.90;;;;;;6211475;23;20021;-82
2021/10/13 14:01:23;;;;;;;9.20;1.73;;;19.40;99.90;;;;;;6210597;23;20020;-83
2021/10/13 14:03:50;;;;;;;7.72;1.40;;;19.50;99.90;;;;;;6211702;23;20021;-83
2021/10/13 14:06:17;;;;;;;4.97;1.27;;;19.60;99.90;;;;;;6210412;23;20021;-83
2021/10/13 14:08:44;;;;;;;2.55;1.10;;;19.60;99.90;;;;;;6209986;23;20021;-83
2021/10/13 14:11:13;;;;;;;5.00;1.20;;;19.60;99.90;;;;;;6211248;23;20028;-83
2021/10/13 14:13:40;;;;;;;2.05;1.08;;;19.60;99.90;;;;;;6210308;23;20020;-83
2021/10/13 14:16:08;;;;;;;2.92;1.23;;;19.50;99.90;;;;;;6184322;23;20017;-83
2021/10/13 14:18:35;;;;;;;2.78;1.27;;;19.50;99.90;;;;;;6211384;23;20008;-84
2021/10/13 14:21:02;;;;;;;3.60;1.58;;;19.40;99.90;;;;;;6209701;23;20017;-83
2021/10/13 14:23:29;;;;;;;3.67;1.35;;;19.40;99.90;;;;;;6210838;23;20021;-83
2021/10/13 14:25:56;;;;;;;3.25;1.50;;;19.30;99.90;;;;;;6209628;23;20024;-84
2021/10/13 14:28:23;;;;;;;5.45;1.25;;;19.20;99.90;;;;;;6211333;23;20107;-84
2021/10/13 14:30:51;;;;;;;3.03;1.48;;;19.10;99.90;;;;;;6211513;23;20021;-84
2021/10/13 14:33:38;;;;;;;3.45;1.15;;;19.10;99.90;;;;;;6210288;23;20071;-83
2021/10/13 14:36:06;;;;;;;2.35;1.10;;;18.90;99.90;;;;;;6209212;23;20075;-85
2021/10/13 14:38:33;;;;;;;3.35;1.40;;;18.80;99.90;;;;;;6208917;23;20166;-82
2021/10/13 14:41:01;;;;;;;3.83;1.40;;;18.80;99.90;;;;;;6211244;23;20036;-82
2021/10/13 14:43:28;;;;;;;3.00;1.15;;;18.80;99.90;;;;;;6208940;23;20036;-82
2021/10/13 14:45:55;;;;;;;1.83;1.20;;;18.80;99.90;;;;;;6211116;23;20008;-83
2021/10/13 14:48:22;;;;;;;4.25;1.13;;;18.80;99.90;;;;;;6210124;23;20035;-83
2021/10/13 14:50:49;;;;;;;3.30;1.30;;;18.80;99.90;;;;;;6184587;23;20021;-83
2021/10/13 14:53:16;;;;;;;2.20;1.27;;;18.80;99.90;;;;;;6210169;23;20086;-83
2021/10/13 14:55:43;;;;;;;2.10;1.17;;;18.90;99.90;;;;;;6210682;23;20021;-83
2021/10/13 14:58:10;;;;;;;4.35;1.02;;;18.90;99.90;;;;;;6210523;23;20021;-82
2021/10/13 15:00:38;;;;;;;2.55;1.40;;;18.90;99.90;;;;;;6210907;23;20487;-83
2021/10/13 15:03:05;;;;;;;3.17;1.05;;;18.90;99.90;;;;;;6210639;23;20036;-82
2021/10/13 15:05:32;;;;;;;3.50;1.27;;;18.90;99.90;;;;;;6210563;23;20025;-82
2021/10/13 15:08:01;;;;;;;2.72;1.20;;;19.00;99.90;;;;;;6185047;23;20071;-83
2021/10/13 15:10:28;;;;;;;4.07;1.23;;;19.00;99.90;;;;;;6210251;23;20074;-83
2021/10/13 15:12:55;;;;;;;7.75;1.45;;;19.00;99.90;;;;;;6184346;23;20024;-84
2021/10/13 15:15:22;;;;;;;1.65;1.27;;;19.00;99.90;;;;;;6209980;23;20532;-84
2021/10/13 15:17:49;;;;;;;2.80;1.30;;;18.90;99.90;;;;;;6210901;23;20024;-83
2021/10/13 15:20:15;;;;;;;3.65;1.70;;;18.90;99.90;;;;;;6210212;23;20024;-82
2021/10/13 15:22:48;;;;;;;2.65;1.63;;;19.00;99.90;;;;;;6211148;23;20017;-83
2021/10/13 15:25:15;;;;;;;3.65;1.92;;;19.00;99.90;;;;;;6209355;23;20021;-84
2021/10/13 15:27:42;;;;;;;5.50;1.90;;;19.10;99.90;;;;;;6210259;23;20024;-84
2021/10/13 15:30:09;;;;;;;4.05;2.00;;;19.20;99.90;;;;;;6209171;23;20017;-83
2021/10/13 15:32:36;;;;;;;3.80;1.73;;;19.20;99.90;;;;;;6211582;23;20075;-83
2021/10/13 15:35:03;;;;;;;5.03;1.80;;;19.30;99.90;;;;;;6211491;23;20028;-83
2021/10/13 15:37:32;;;;;;;2.17;1.63;;;19.30;99.90;;;;;;6210163;23;20013;-83
2021/10/13 15:39:59;;;;;;;5.22;1.75;;;19.20;99.90;;;;;;6209951;23;20029;-84
2021/10/13 15:42:25;;;;;;;5.20;1.85;;;19.20;99.90;;;;;;6210908;23;20020;-84
2021/10/13 15:44:52;;;;;;;5.03;1.95;;;19.10;99.90;;;;;;6185284;23;20012;-84
2021/10/13 15:47:19;;;;;;;5.18;1.70;;;19.10;99.90;;;;;;6211118;23;20104;-84
2021/10/13 15:49:46;;;;;;;5.40;1.92;;;19.10;99.90;;;;;;6185161;23;20478;-84
2021/10/13 15:52:14;;;;;;;8.40;1.88;;;19.00;99.90;;;;;;6209918;23;20020;-83
2021/10/13 15:54:41;;;;;;;6.38;1.90;;;18.90;99.90;;;;;;6211120;23;20020;-84
2021/10/13 15:57:08;;;;;;;4.85;2.50;;;18.90;99.90;;;;;;6209348;23;20025;-84
2021/10/13 15:59:35;;;;;;;5.28;2.13;;;18.90;99.90;;;;;;6210398;23;20017;-84
2021/10/13 16:02:03;;;;;;;4.35;1.90;;;18.80;99.90;;;;;;6210406;23;20021;-84
2021/10/13 16:04:31;;;;;;;5.18;2.50;;;18.80;99.90;;;;;;6210656;23;20017;-83
2021/10/13 16:06:58;;;;;;;5.68;2.28;;;18.70;99.90;;;;;;6210648;23;20021;-84
2021/10/13 16:09:25;;;;;;;7.05;2.28;;;18.70;99.90;;;;;;6209880;23;20517;-84
2021/10/13 16:11:52;;;;;;;6.65;2.00;;;18.60;99.90;;;;;;6209731;23;20482;-83
2021/10/13 16:14:20;;;;;;;7.88;2.70;;;18.60;99.90;;;;;;6208969;23;20074;-82
2021/10/13 16:16:48;;;;;;;7.78;2.55;;;18.60;99.90;;;;;;6210419;23;20415;-83
2021/10/13 16:19:15;;;;;;;4.80;2.60;;;18.50;99.90;;;;;;6207671;23;20028;-84
2021/10/13 16:21:42;;;;;;;5.95;2.33;;;18.50;99.90;;;;;;6210025;23;20024;-82
2021/10/13 16:24:11;;;;;;;6.43;2.80;;;18.40;99.90;;;;;;6209039;23;20012;-82
2021/10/13 16:26:40;;;;;;;6.47;3.40;;;18.40;99.90;;;;;;6210286;23;20024;-83
2021/10/13 16:29:08;;;;;;;7.95;3.63;;;18.30;99.90;;;;;;6210437;23;20023;-81
2021/10/13 16:31:36;;;;;;;8.90;3.83;;;18.30;99.90;;;;;;6210839;23;20067;-82
2021/10/13 16:34:04;;;;;;;9.33;3.97;;;18.20;99.90;;;;;;6211281;23;20040;-81
2021/10/13 16:36:32;;;;;;;8.95;3.85;;;18.10;99.90;;;;;;6209035;23;20028;-82
2021/10/13 16:38:59;;;;;;;11.65;3.63;;;18.00;99.90;;;;;;6209996;23;20413;-83
2021/10/13 16:41:26;;;;;;;7.05;3.28;;;18.00;99.90;;;;;;6208062;23;20020;-83
2021/10/13 16:43:53;;;;;;;6.72;3.40;;;17.80;99.90;;;;;;6209608;23;20016;-84
2021/10/13 16:46:20;;;;;;;9.00;3.40;;;17.70;99.90;;;;;;6208948;23;20651;-84
2021/10/13 16:48:47;;;;;;;9.25;3.50;;;17.60;99.90;;;;;;6210254;23;20350;-85
2021/10/13 16:51:14;;;;;;;10.55;3.50;;;17.50;99.90;;;;;;6210332;23;20024;-83
2021/10/13 16:53:41;;;;;;;11.05;4.07;;;17.40;99.90;;;;;;6210976;23;20017;-84
2021/10/13 16:56:08;;;;;;;5.32;3.20;;;17.20;99.90;;;;;;6182791;22;20071;-82
2021/10/13 16:58:35;;;;;;;7.35;2.92;;;17.10;99.90;;;;;;6209590;23;20482;-83
2021/10/13 17:01:02;;;;;;;9.88;3.42;;;17.10;99.90;;;;;;6183954;23;20020;-82
2021/10/13 17:03:32;;;;;;;8.35;3.10;;;17.00;99.90;;;;;;6209496;23;20478;-81
2021/10/13 17:05:59;;;;;;;8.88;3.33;;;16.80;99.90;;;;;;6183243;23;20414;-83
2021/10/13 17:08:26;;;;;;;9.45;3.25;;;16.80;99.90;;;;;;6210006;23;20081;-83
2021/10/13 17:10:53;;;;;;;9.15;3.50;;;16.70;99.90;;;;;;6209224;23;20028;-83
2021/10/13 17:13:23;;;;;;;5.90;2.92;;;16.60;99.90;;;;;;6207690;23;20078;-83
2021/10/13 17:15:50;;;;;;;7.00;3.33;;;16.50;99.90;;;;;;6210962;23;20415;-83
2021/10/13 17:18:17;;;;;;;8.75;3.75;;;16.40;99.90;;;;;;6210846;23;20020;-83
2021/10/13 17:20:44;;;;;;;8.80;3.92;;;16.30;99.90;;;;;;6211680;23;20013;-83
2021/10/13 17:23:11;;;;;;;8.23;3.63;;;16.10;99.90;;;;;;6210802;23;20012;-82
2021/10/13 17:25:42;;;;;;;6.25;3.13;;;16.10;99.90;;;;;;6184028;23;20103;-83
2021/10/13 17:28:09;;;;;;;9.07;3.53;;;15.90;99.90;;;;;;6183457;23;20024;-82
2021/10/13 17:30:36;;;;;;;7.18;3.05;;;15.90;99.90;;;;;;6211028;23;20021;-83
2021/10/13 17:33:03;;;;;;;9.65;3.08;;;15.80;99.90;;;;;;6186261;23;20023;-82
2021/10/13 17:35:32;;;;;;;9.02;3.35;;;15.70;99.90;;;;;;6210858;23;20017;-83
2021/10/13 17:37:59;;;;;;;6.20;3.25;;;15.70;99.90;;;;;;6212119;23;20024;-83
2021/10/13 17:40:26;;;;;;;6.50;3.33;;;15.60;99.90;;;;;;6211606;23;20793;-85
2021/10/13 17:42:53;;;;;;;6.07;3.30;;;15.50;99.90;;;;;;6212338;23;20023;-84
2021/10/13 17:45:23;;;;;;;7.88;3.50;;;15.40;99.90;;;;;;6210349;23;20021;-83
2021/10/13 17:47:52;;;;;;;8.23;3.10;;;15.40;99.90;;;;;;6210847;23;20488;-83
2021/10/13 17:50:19;;;;;;;10.35;3.50;;;15.30;99.90;;;;;;6210421;23;20025;-83
2021/10/13 17:52:47;;;;;;;7.43;4.18;;;15.20;99.90;;;;;;6185627;23;20024;-81
2021/10/13 17:55:14;;;;;;;9.18;3.70;;;15.20;99.90;;;;;;6186426;23;20071;-82
2021/10/13 17:57:41;;;;;;;9.63;3.95;;;15.10;99.90;;;;;;6241088;23;20020;-82
2021/10/13 18:00:11;;;;;;;7.20;3.70;;;15.00;99.90;;;;;;6214866;23;20023;-83
2021/10/13 18:02:39;;;;;;;9.88;4.38;;;14.90;99.90;;;;;;6241509;23;20031;-82
2021/10/13 18:05:07;;;;;;;8.52;4.38;;;14.90;99.90;;;;;;6214660;23;20069;-83
2021/10/13 18:07:36;;;;;;;10.93;3.95;;;14.80;99.90;;;;;;6240806;23;20035;-81
2021/10/13 18:10:07;;;;;;;8.02;4.20;;;14.80;99.90;;;;;;6226897;23;20532;-83
2021/10/13 18:12:35;;;;;;;9.43;4.88;;;14.80;99.90;;;;;;6207980;23;20048;-82
2021/10/13 18:15:03;;;;;;;7.88;4.45;;;14.70;99.90;;;;;;6207582;23;20020;-81
2021/10/13 18:17:30;;;;;;;8.05;4.30;;;14.70;99.90;;;;;;6209555;23;20039;-90
2021/10/13 18:19:57;;;;;;;9.52;4.50;;;14.60;99.90;;;;;;6210320;23;20064;-82
2021/10/13 18:22:24;;;;;;;8.10;4.93;;;14.60;99.90;;;;;;6208113;23;20070;-83
2021/10/13 18:24:51;;;;;;;8.25;4.60;;;14.50;99.90;;;;;;6214042;23;20398;-83
2021/10/13 18:27:20;;;;;;;8.38;4.55;;;14.50;99.90;;;;;;6222634;23;20016;-84
2021/10/13 18:29:50;;;;;;;7.70;4.50;;;14.50;99.90;;;;;;6234018;23;20016;-83
2021/10/13 18:32:18;;;;;;;10.05;5.75;;;14.40;99.90;;;;;;6205801;23;20372;-82
2021/10/13 18:34:45;;;;;;;10.82;6.88;;;14.40;99.90;;;;;;6233579;23;20016;-81
2021/10/13 18:37:13;;;;;;;10.50;8.15;;;14.30;99.90;;;;;;6204620;23;20078;-82
2021/10/13 18:39:40;;;;;;;14.50;8.88;;;14.20;99.90;;;;;;6232057;23;20713;-82
2021/10/13 18:42:13;;;;;;;12.07;9.07;;;14.20;99.90;;;;;;6205295;23;20038;-83
2021/10/13 18:44:40;;;;;;;12.10;9.00;;;14.10;99.90;;;;;;6235219;23;20074;-82
2021/10/13 18:47:07;;;;;;;13.10;8.30;;;14.10;99.90;;;;;;6235040;23;20019;-84
2021/10/13 18:49:34;;;;;;;12.73;9.10;;;14.00;99.90;;;;;;6237081;23;20062;-86